sensor_id;sensor_type;location;lat;lon;timestamp;pressure;altitude;pressure_sealevel;temperature;humidity
38400;BME280;24180;42.676;23.320;2022-07-19T00:01:28;95425.22;;;18.52;100.00
38400;BME280;24180;42.676;23.320;2022-07-19T00:04:16;95441.44;;;18.55;100.00
38400;BME280;24180;42.676;23.320;2022-07-19T00:06:41;95434.88;;;18.51;100.00
38400;BME280;24180;42.676;23.320;2022-07-19T00:09:15;95424.38;;;18.51;100.00
38400;BME280;24180;42.676;23.320;2022-07-19T00:11:56;95429.34;;;18.46;100.00
38400;BME280;24180;42.676;23.320;2022-07-19T00:14:27;95422.84;;;18.34;100.00
38400;BME280;24180;42.676;23.320;2022-07-19T00:16:58;95434.88;;;18.29;100.00
38400;BME280;24180;42.676;23.320;2022-07-19T00:19:24;95427.22;;;18.19;100.00
38400;BME280;24180;42.676;23.320;2022-07-19T00:22:10;95434.75;;;18.22;100.00
38400;BME280;24180;42.676;23.320;2022-07-19T00:24:37;95432.13;;;18.22;100.00
38400;BME280;24180;42.676;23.320;2022-07-19T00:27:04;95421.22;;;18.10;100.00
38400;BME280;24180;42.676;23.320;2022-07-19T00:29:30;95421.41;;;18.09;100.00
38400;BME280;24180;42.676;23.320;2022-07-19T00:31:56;95410.00;;;17.94;100.00
38400;BME280;24180;42.676;23.320;2022-07-19T00:34:21;95424.94;;;17.93;100.00
38400;BME280;24180;42.676;23.320;2022-07-19T00:36:48;95412.00;;;17.92;100.00
38400;BME280;24180;42.676;23.320;2022-07-19T00:39:14;95415.59;;;17.91;100.00
38400;BME280;24180;42.676;23.320;2022-07-19T00:41:41;95432.25;;;17.98;100.00
38400;BME280;24180;42.676;23.320;2022-07-19T00:44:21;95424.16;;;17.85;100.00
38400;BME280;24180;42.676;23.320;2022-07-19T00:46:47;95429.09;;;17.80;100.00
38400;BME280;24180;42.676;23.320;2022-07-19T00:49:18;95434.81;;;17.83;100.00
38400;BME280;24180;42.676;23.320;2022-07-19T00:51:47;95421.84;;;17.82;100.00
38400;BME280;24180;42.676;23.320;2022-07-19T00:54:19;95424.63;;;17.88;100.00
38400;BME280;24180;42.676;23.320;2022-07-19T00:56:49;95414.31;;;17.87;100.00
38400;BME280;24180;42.676;23.320;2022-07-19T00:59:15;95423.50;;;17.83;100.00
38400;BME280;24180;42.676;23.320;2022-07-19T01:01:43;95422.56;;;17.75;100.00
38400;BME280;24180;42.676;23.320;2022-07-19T01:04:18;95413.56;;;17.70;100.00
38400;BME280;24180;42.676;23.320;2022-07-19T01:06:45;95412.47;;;17.64;100.00
38400;BME280;24180;42.676;23.320;2022-07-19T01:09:12;95420.91;;;17.74;100.00
38400;BME280;24180;42.676;23.320;2022-07-19T01:11:44;95417.72;;;17.64;100.00
38400;BME280;24180;42.676;23.320;2022-07-19T01:14:19;95426.19;;;17.66;100.00
38400;BME280;24180;42.676;23.320;2022-07-19T01:16:45;95423.09;;;17.63;100.00
38400;BME280;24180;42.676;23.320;2022-07-19T01:19:29;95421.31;;;17.63;100.00
38400;BME280;24180;42.676;23.320;2022-07-19T01:21:56;95414.28;;;17.56;100.00
38400;BME280;24180;42.676;23.320;2022-07-19T01:24:40;95409.22;;;17.46;100.00
38400;BME280;24180;42.676;23.320;2022-07-19T01:27:08;95417.72;;;17.56;100.00
38400;BME280;24180;42.676;23.320;2022-07-19T01:29:54;95413.78;;;17.52;100.00
38400;BME280;24180;42.676;23.320;2022-07-19T01:32:20;95394.19;;;17.48;100.00
38400;BME280;24180;42.676;23.320;2022-07-19T01:34:49;95415.47;;;17.45;100.00
38400;BME280;24180;42.676;23.320;2022-07-19T01:37:14;95404.00;;;17.38;100.00
38400;BME280;24180;42.676;23.320;2022-07-19T01:40:11;95408.59;;;17.44;100.00
38400;BME280;24180;42.676;23.320;2022-07-19T01:42:39;95390.09;;;17.38;100.00
38400;BME280;24180;42.676;23.320;2022-07-19T01:45:06;95417.09;;;17.38;100.00
38400;BME280;24180;42.676;23.320;2022-07-19T01:47:34;95406.63;;;17.38;100.00
38400;BME280;24180;42.676;23.320;2022-07-19T01:50:04;95403.41;;;17.28;100.00
38400;BME280;24180;42.676;23.320;2022-07-19T01:52:46;95399.31;;;17.25;100.00
38400;BME280;24180;42.676;23.320;2022-07-19T01:55:15;95409.66;;;17.19;100.00
38400;BME280;24180;42.676;23.320;2022-07-19T01:57:49;95414.53;;;17.22;100.00
38400;BME280;24180;42.676;23.320;2022-07-19T02:00:16;95406.66;;;17.30;100.00
38400;BME280;24180;42.676;23.320;2022-07-19T02:02:43;95404.72;;;17.24;100.00
38400;BME280;24180;42.676;23.320;2022-07-19T02:05:26;95401.28;;;17.23;100.00
38400;BME280;24180;42.676;23.320;2022-07-19T02:08:00;95408.81;;;17.18;100.00
38400;BME280;24180;42.676;23.320;2022-07-19T02:10:25;95407.06;;;17.03;100.00
38400;BME280;24180;42.676;23.320;2022-07-19T02:16:17;95417.84;;;17.08;100.00
38400;BME280;24180;42.676;23.320;2022-07-19T02:18:49;95413.28;;;17.02;100.00
38400;BME280;24180;42.676;23.320;2022-07-19T02:21:36;95414.91;;;17.11;100.00
38400;BME280;24180;42.676;23.320;2022-07-19T02:24:06;95414.78;;;16.96;100.00
38400;BME280;24180;42.676;23.320;2022-07-19T02:26:33;95415.06;;;17.01;100.00
38400;BME280;24180;42.676;23.320;2022-07-19T02:29:01;95409.06;;;16.84;100.00
38400;BME280;24180;42.676;23.320;2022-07-19T02:31:27;95423.94;;;16.92;100.00
38400;BME280;24180;42.676;23.320;2022-07-19T02:33:53;95427.19;;;16.94;100.00
38400;BME280;24180;42.676;23.320;2022-07-19T02:36:21;95416.59;;;16.88;100.00
38400;BME280;24180;42.676;23.320;2022-07-19T02:38:49;95415.75;;;16.87;100.00
38400;BME280;24180;42.676;23.320;2022-07-19T02:41:16;95409.38;;;16.81;100.00
38400;BME280;24180;42.676;23.320;2022-07-19T02:43:54;95427.06;;;16.88;100.00
38400;BME280;24180;42.676;23.320;2022-07-19T02:46:25;95422.16;;;16.84;100.00
38400;BME280;24180;42.676;23.320;2022-07-19T02:48:51;95434.22;;;17.02;100.00
38400;BME280;24180;42.676;23.320;2022-07-19T02:51:28;95435.88;;;16.95;100.00
38400;BME280;24180;42.676;23.320;2022-07-19T02:53:54;95433.25;;;16.87;100.00
38400;BME280;24180;42.676;23.320;2022-07-19T02:56:20;95433.09;;;16.88;100.00
38400;BME280;24180;42.676;23.320;2022-07-19T02:58:46;95425.91;;;16.82;100.00
38400;BME280;24180;42.676;23.320;2022-07-19T03:01:40;95429.66;;;16.79;100.00
38400;BME280;24180;42.676;23.320;2022-07-19T03:04:08;95435.53;;;16.81;100.00
38400;BME280;24180;42.676;23.320;2022-07-19T03:06:34;95438.50;;;16.78;100.00
38400;BME280;24180;42.676;23.320;2022-07-19T03:09:02;95436.06;;;16.69;100.00
38400;BME280;24180;42.676;23.320;2022-07-19T03:11:29;95426.38;;;16.69;100.00
38400;BME280;24180;42.676;23.320;2022-07-19T03:14:01;95433.59;;;16.67;100.00
38400;BME280;24180;42.676;23.320;2022-07-19T03:16:26;95426.41;;;16.61;100.00
38400;BME280;24180;42.676;23.320;2022-07-19T03:18:52;95430.16;;;16.67;100.00
38400;BME280;24180;42.676;23.320;2022-07-19T03:21:18;95429.00;;;16.77;100.00
38400;BME280;24180;42.676;23.320;2022-07-19T03:24:03;95436.38;;;16.74;100.00
38400;BME280;24180;42.676;23.320;2022-07-19T03:26:29;95442.75;;;16.79;100.00
38400;BME280;24180;42.676;23.320;2022-07-19T03:29:00;95437.84;;;16.68;100.00
38400;BME280;24180;42.676;23.320;2022-07-19T03:31:31;95444.22;;;16.74;100.00
38400;BME280;24180;42.676;23.320;2022-07-19T03:33:59;95448.31;;;16.84;100.00
38400;BME280;24180;42.676;23.320;2022-07-19T03:36:56;95453.38;;;16.78;100.00
38400;BME280;24180;42.676;23.320;2022-07-19T03:39:41;95457.47;;;16.89;100.00
38400;BME280;24180;42.676;23.320;2022-07-19T03:42:08;95439.78;;;16.82;100.00
38400;BME280;24180;42.676;23.320;2022-07-19T03:44:39;95447.50;;;16.84;100.00
38400;BME280;24180;42.676;23.320;2022-07-19T03:47:04;95440.13;;;16.79;100.00
38400;BME280;24180;42.676;23.320;2022-07-19T03:49:35;95443.72;;;16.87;100.00
38400;BME280;24180;42.676;23.320;2022-07-19T03:52:03;95451.22;;;16.90;100.00
38400;BME280;24180;42.676;23.320;2022-07-19T03:54:45;95447.00;;;16.89;100.00
38400;BME280;24180;42.676;23.320;2022-07-19T03:57:23;95461.38;;;17.01;100.00
38400;BME280;24180;42.676;23.320;2022-07-19T03:59:48;95460.38;;;17.02;100.00
38400;BME280;24180;42.676;23.320;2022-07-19T04:02:13;95469.88;;;17.03;100.00
38400;BME280;24180;42.676;23.320;2022-07-19T04:04:39;95459.41;;;17.03;100.00
38400;BME280;24180;42.676;23.320;2022-07-19T04:07:04;95462.34;;;17.08;100.00
38400;BME280;24180;42.676;23.320;2022-07-19T04:09:30;95460.84;;;17.13;100.00
38400;BME280;24180;42.676;23.320;2022-07-19T04:11:55;95472.13;;;17.22;100.00
38400;BME280;24180;42.676;23.320;2022-07-19T04:14:21;95458.72;;;17.33;100.00
38400;BME280;24180;42.676;23.320;2022-07-19T04:16:46;95462.38;;;17.63;100.00
38400;BME280;24180;42.676;23.320;2022-07-19T04:19:12;95467.91;;;17.76;100.00
38400;BME280;24180;42.676;23.320;2022-07-19T04:21:37;95460.41;;;17.73;100.00
38400;BME280;24180;42.676;23.320;2022-07-19T04:24:08;95453.00;;;17.76;100.00
38400;BME280;24180;42.676;23.320;2022-07-19T04:26:33;95463.53;;;17.68;100.00
38400;BME280;24180;42.676;23.320;2022-07-19T04:28:59;95462.38;;;17.71;100.00
38400;BME280;24180;42.676;23.320;2022-07-19T04:31:24;95462.69;;;17.76;100.00
38400;BME280;24180;42.676;23.320;2022-07-19T04:33:50;95467.88;;;17.84;100.00
38400;BME280;24180;42.676;23.320;2022-07-19T04:36:15;95467.06;;;17.84;100.00
38400;BME280;24180;42.676;23.320;2022-07-19T04:38:41;95469.47;;;17.93;100.00
38400;BME280;24180;42.676;23.320;2022-07-19T04:41:06;95468.31;;;17.96;100.00
38400;BME280;24180;42.676;23.320;2022-07-19T04:43:32;95470.53;;;18.07;100.00
38400;BME280;24180;42.676;23.320;2022-07-19T04:45:57;95474.31;;;18.12;100.00
38400;BME280;24180;42.676;23.320;2022-07-19T04:48:27;95468.88;;;18.14;100.00
38400;BME280;24180;42.676;23.320;2022-07-19T04:50:52;95477.84;;;18.19;100.00
38400;BME280;24180;42.676;23.320;2022-07-19T04:53:18;95467.03;;;18.22;100.00
38400;BME280;24180;42.676;23.320;2022-07-19T04:55:43;95465.72;;;18.18;100.00
38400;BME280;24180;42.676;23.320;2022-07-19T04:58:09;95480.03;;;18.39;100.00
38400;BME280;24180;42.676;23.320;2022-07-19T05:00:36;95480.63;;;18.49;100.00
38400;BME280;24180;42.676;23.320;2022-07-19T05:03:03;95477.19;;;18.48;100.00
38400;BME280;24180;42.676;23.320;2022-07-19T05:05:30;95486.31;;;18.60;100.00
38400;BME280;24180;42.676;23.320;2022-07-19T05:07:55;95474.13;;;18.67;100.00
38400;BME280;24180;42.676;23.320;2022-07-19T05:10:21;95482.00;;;18.67;100.00
38400;BME280;24180;42.676;23.320;2022-07-19T05:12:46;95479.09;;;18.85;100.00
38400;BME280;24180;42.676;23.320;2022-07-19T05:15:24;95481.00;;;18.91;100.00
38400;BME280;24180;42.676;23.320;2022-07-19T05:21:12;95473.34;;;19.04;100.00
38400;BME280;24180;42.676;23.320;2022-07-19T05:23:42;95490.09;;;19.18;100.00
38400;BME280;24180;42.676;23.320;2022-07-19T05:26:14;95489.50;;;19.31;100.00
38400;BME280;24180;42.676;23.320;2022-07-19T05:28:42;95470.72;;;19.19;100.00
38400;BME280;24180;42.676;23.320;2022-07-19T05:31:08;95471.94;;;19.31;100.00
38400;BME280;24180;42.676;23.320;2022-07-19T05:33:36;95484.66;;;19.57;100.00
38400;BME280;24180;42.676;23.320;2022-07-19T05:36:03;95485.50;;;19.57;100.00
38400;BME280;24180;42.676;23.320;2022-07-19T05:38:30;95465.84;;;19.53;100.00
38400;BME280;24180;42.676;23.320;2022-07-19T05:41:12;95481.56;;;19.83;100.00
38400;BME280;24180;42.676;23.320;2022-07-19T05:43:40;95472.88;;;19.82;100.00
38400;BME280;24180;42.676;23.320;2022-07-19T05:46:07;95473.50;;;19.84;100.00
38400;BME280;24180;42.676;23.320;2022-07-19T05:48:32;95482.63;;;20.03;100.00
38400;BME280;24180;42.676;23.320;2022-07-19T05:54:15;95476.25;;;20.27;100.00
38400;BME280;24180;42.676;23.320;2022-07-19T05:56:44;95472.72;;;20.34;100.00
38400;BME280;24180;42.676;23.320;2022-07-19T05:59:10;95449.50;;;20.23;100.00
38400;BME280;24180;42.676;23.320;2022-07-19T06:01:37;95476.56;;;20.53;100.00
38400;BME280;24180;42.676;23.320;2022-07-19T06:04:03;95423.59;;;20.20;100.00
38400;BME280;24180;42.676;23.320;2022-07-19T06:06:30;95460.78;;;20.53;100.00
38400;BME280;24180;42.676;23.320;2022-07-19T06:09:00;95475.91;;;20.66;100.00
38400;BME280;24180;42.676;23.320;2022-07-19T06:11:29;95476.38;;;20.76;100.00
38400;BME280;24180;42.676;23.320;2022-07-19T06:13:58;95477.75;;;20.93;100.00
38400;BME280;24180;42.676;23.320;2022-07-19T06:16:25;95480.19;;;20.94;100.00
38400;BME280;24180;42.676;23.320;2022-07-19T06:18:52;95474.75;;;20.96;100.00
38400;BME280;24180;42.676;23.320;2022-07-19T06:21:19;95448.28;;;20.83;100.00
38400;BME280;24180;42.676;23.320;2022-07-19T06:23:47;95463.31;;;21.10;100.00
38400;BME280;24180;42.676;23.320;2022-07-19T06:26:14;95475.13;;;21.14;100.00
38400;BME280;24180;42.676;23.320;2022-07-19T06:28:42;95478.00;;;21.19;100.00
38400;BME280;24180;42.676;23.320;2022-07-19T06:31:12;95464.69;;;21.27;100.00
38400;BME280;24180;42.676;23.320;2022-07-19T06:33:44;95469.66;;;21.43;100.00
38400;BME280;24180;42.676;23.320;2022-07-19T06:36:12;95463.00;;;21.47;100.00
38400;BME280;24180;42.676;23.320;2022-07-19T06:38:38;95455.72;;;21.50;100.00
38400;BME280;24180;42.676;23.320;2022-07-19T06:41:06;95456.31;;;21.45;100.00
38400;BME280;24180;42.676;23.320;2022-07-19T06:43:32;95450.88;;;21.53;100.00
38400;BME280;24180;42.676;23.320;2022-07-19T06:45:59;95454.69;;;21.85;100.00
38400;BME280;24180;42.676;23.320;2022-07-19T06:48:24;95450.81;;;21.81;100.00
38400;BME280;24180;42.676;23.320;2022-07-19T06:50:51;95448.78;;;21.83;100.00
38400;BME280;24180;42.676;23.320;2022-07-19T06:53:17;95443.34;;;21.84;100.00
38400;BME280;24180;42.676;23.320;2022-07-19T06:55:43;95436.09;;;21.93;100.00
38400;BME280;24180;42.676;23.320;2022-07-19T06:58:10;95451.19;;;22.12;100.00
38400;BME280;24180;42.676;23.320;2022-07-19T07:00:37;95452.66;;;22.21;100.00
38400;BME280;24180;42.676;23.320;2022-07-19T07:03:02;95464.25;;;22.33;100.00
38400;BME280;24180;42.676;23.320;2022-07-19T07:05:29;95432.19;;;22.36;100.00
38400;BME280;24180;42.676;23.320;2022-07-19T07:07:59;95454.56;;;22.54;100.00
38400;BME280;24180;42.676;23.320;2022-07-19T07:10:25;95453.56;;;22.68;100.00
38400;BME280;24180;42.676;23.320;2022-07-19T07:12:51;95452.38;;;22.83;100.00
38400;BME280;24180;42.676;23.320;2022-07-19T07:15:17;95447.13;;;22.90;100.00
38400;BME280;24180;42.676;23.320;2022-07-19T07:17:44;95456.06;;;22.96;94.14
38400;BME280;24180;42.676;23.320;2022-07-19T07:20:13;95436.53;;;23.03;89.79
38400;BME280;24180;42.676;23.320;2022-07-19T07:22:38;95456.50;;;23.19;93.50
38400;BME280;24180;42.676;23.320;2022-07-19T07:25:10;95447.53;;;23.33;91.18
38400;BME280;24180;42.676;23.320;2022-07-19T07:27:40;95451.38;;;23.44;90.77
38400;BME280;24180;42.676;23.320;2022-07-19T07:30:08;95434.91;;;23.42;88.73
38400;BME280;24180;42.676;23.320;2022-07-19T07:32:42;95445.66;;;23.60;89.10
38400;BME280;24180;42.676;23.320;2022-07-19T07:35:08;95448.47;;;23.78;84.45
38400;BME280;24180;42.676;23.320;2022-07-19T07:37:37;95434.44;;;23.77;80.48
38400;BME280;24180;42.676;23.320;2022-07-19T07:40:03;95452.03;;;24.03;78.41
38400;BME280;24180;42.676;23.320;2022-07-19T07:42:38;95453.25;;;24.07;76.66
38400;BME280;24180;42.676;23.320;2022-07-19T07:45:04;95439.63;;;24.10;74.83
38400;BME280;24180;42.676;23.320;2022-07-19T07:47:32;95436.16;;;24.10;74.16
38400;BME280;24180;42.676;23.320;2022-07-19T07:49:58;95439.59;;;24.17;69.93
38400;BME280;24180;42.676;23.320;2022-07-19T07:52:25;95434.06;;;24.25;70.85
38400;BME280;24180;42.676;23.320;2022-07-19T07:54:50;95430.47;;;24.51;70.58
38400;BME280;24180;42.676;23.320;2022-07-19T07:57:19;95420.72;;;24.45;64.14
38400;BME280;24180;42.676;23.320;2022-07-19T07:59:44;95438.50;;;24.69;64.21
38400;BME280;24180;42.676;23.320;2022-07-19T08:02:10;95423.22;;;24.71;63.31
38400;BME280;24180;42.676;23.320;2022-07-19T08:04:36;95429.16;;;24.98;60.91
38400;BME280;24180;42.676;23.320;2022-07-19T08:07:04;95441.00;;;24.95;58.74
38400;BME280;24180;42.676;23.320;2022-07-19T08:09:30;95429.47;;;25.08;57.01
38400;BME280;24180;42.676;23.320;2022-07-19T08:11:57;95428.81;;;25.12;55.37
38400;BME280;24180;42.676;23.320;2022-07-19T08:14:24;95442.19;;;25.24;53.44
38400;BME280;24180;42.676;23.320;2022-07-19T08:16:54;95440.41;;;25.43;49.87
38400;BME280;24180;42.676;23.320;2022-07-19T08:19:21;95434.19;;;25.49;47.24
38400;BME280;24180;42.676;23.320;2022-07-19T08:21:48;95390.94;;;25.30;47.71
38400;BME280;24180;42.676;23.320;2022-07-19T08:24:13;95394.78;;;25.34;48.05
38400;BME280;24180;42.676;23.320;2022-07-19T08:26:40;95415.75;;;25.60;48.78
38400;BME280;24180;42.676;23.320;2022-07-19T08:29:06;95399.72;;;25.49;47.41
38400;BME280;24180;42.676;23.320;2022-07-19T08:31:32;95407.88;;;25.72;45.44
38400;BME280;24180;42.676;23.320;2022-07-19T08:33:59;95402.06;;;25.82;45.46
38400;BME280;24180;42.676;23.320;2022-07-19T08:36:26;95425.63;;;25.90;43.56
38400;BME280;24180;42.676;23.320;2022-07-19T08:38:52;95425.69;;;26.01;44.00
38400;BME280;24180;42.676;23.320;2022-07-19T08:41:20;95405.19;;;26.08;43.81
38400;BME280;24180;42.676;23.320;2022-07-19T08:43:48;95399.50;;;26.05;43.05
38400;BME280;24180;42.676;23.320;2022-07-19T08:46:14;95420.88;;;26.28;43.53
38400;BME280;24180;42.676;23.320;2022-07-19T08:48:41;95405.03;;;26.40;43.08
38400;BME280;24180;42.676;23.320;2022-07-19T08:51:07;95409.78;;;26.49;41.48
38400;BME280;24180;42.676;23.320;2022-07-19T08:53:35;95411.31;;;26.57;41.05
38400;BME280;24180;42.676;23.320;2022-07-19T08:56:06;95403.22;;;26.52;40.75
38400;BME280;24180;42.676;23.320;2022-07-19T08:58:51;95403.34;;;26.57;40.97
38400;BME280;24180;42.676;23.320;2022-07-19T09:01:18;95415.25;;;26.66;40.94
38400;BME280;24180;42.676;23.320;2022-07-19T09:04:16;95414.09;;;26.62;41.60
38400;BME280;24180;42.676;23.320;2022-07-19T09:06:46;95418.41;;;26.75;40.60
38400;BME280;24180;42.676;23.320;2022-07-19T09:09:16;95416.28;;;26.65;40.09
38400;BME280;24180;42.676;23.320;2022-07-19T09:11:45;95403.81;;;26.66;40.43
38400;BME280;24180;42.676;23.320;2022-07-19T09:16:50;95417.66;;;26.97;39.40
38400;BME280;24180;42.676;23.320;2022-07-19T09:19:16;95409.50;;;27.11;39.91
38400;BME280;24180;42.676;23.320;2022-07-19T09:24:21;95397.91;;;27.05;40.07
38400;BME280;24180;42.676;23.320;2022-07-19T09:29:22;95397.91;;;26.93;39.69
38400;BME280;24180;42.676;23.320;2022-07-19T09:32:07;95390.63;;;27.00;40.62
38400;BME280;24180;42.676;23.320;2022-07-19T09:34:39;95389.50;;;27.08;39.55
38400;BME280;24180;42.676;23.320;2022-07-19T09:39:43;95386.50;;;27.28;39.59
38400;BME280;24180;42.676;23.320;2022-07-19T09:42:47;95396.44;;;27.44;40.04
38400;BME280;24180;42.676;23.320;2022-07-19T09:45:16;95395.28;;;27.63;38.69
38400;BME280;24180;42.676;23.320;2022-07-19T09:47:47;95387.72;;;27.83;38.25
38400;BME280;24180;42.676;23.320;2022-07-19T09:50:19;95384.22;;;27.95;38.83
38400;BME280;24180;42.676;23.320;2022-07-19T09:52:48;95370.41;;;27.58;38.01
38400;BME280;24180;42.676;23.320;2022-07-19T09:55:17;95386.31;;;27.81;38.90
38400;BME280;24180;42.676;23.320;2022-07-19T09:57:45;95380.09;;;28.27;37.39
38400;BME280;24180;42.676;23.320;2022-07-19T10:00:13;95385.81;;;28.64;36.55
38400;BME280;24180;42.676;23.320;2022-07-19T10:02:42;95373.31;;;28.08;37.43
38400;BME280;24180;42.676;23.320;2022-07-19T10:05:09;95374.34;;;28.07;37.28
38400;BME280;24180;42.676;23.320;2022-07-19T10:07:36;95375.63;;;28.44;36.48
38400;BME280;24180;42.676;23.320;2022-07-19T10:10:07;95369.38;;;29.34;35.55
38400;BME280;24180;42.676;23.320;2022-07-19T10:12:33;95367.75;;;30.36;34.16
38400;BME280;24180;42.676;23.320;2022-07-19T10:15:01;95366.25;;;30.45;34.87
38400;BME280;24180;42.676;23.320;2022-07-19T10:17:37;95375.50;;;30.59;34.45
38400;BME280;24180;42.676;23.320;2022-07-19T10:20:06;95368.84;;;31.68;32.70
38400;BME280;24180;42.676;23.320;2022-07-19T10:22:34;95357.09;;;31.69;33.24
38400;BME280;24180;42.676;23.320;2022-07-19T10:32:33;95357.91;;;31.74;32.27
38400;BME280;24180;42.676;23.320;2022-07-19T10:38:10;95362.41;;;32.21;32.04
38400;BME280;24180;42.676;23.320;2022-07-19T10:43:11;95356.41;;;31.09;32.79
38400;BME280;24180;42.676;23.320;2022-07-19T10:51:03;95349.06;;;33.72;30.19
38400;BME280;24180;42.676;23.320;2022-07-19T10:58:59;95349.56;;;39.46;22.69
38400;BME280;24180;42.676;23.320;2022-07-19T11:01:26;95342.72;;;41.30;21.79
38400;BME280;24180;42.676;23.320;2022-07-19T11:03:54;95337.00;;;43.41;19.74
38400;BME280;24180;42.676;23.320;2022-07-19T11:06:24;95350.03;;;42.61;20.09
38400;BME280;24180;42.676;23.320;2022-07-19T11:08:56;95336.53;;;42.43;20.13
38400;BME280;24180;42.676;23.320;2022-07-19T11:11:23;95343.88;;;42.72;19.55
38400;BME280;24180;42.676;23.320;2022-07-19T11:13:51;95333.13;;;41.96;19.77
38400;BME280;24180;42.676;23.320;2022-07-19T11:16:18;95317.50;;;38.95;21.95
38400;BME280;24180;42.676;23.320;2022-07-19T11:18:44;95327.63;;;40.04;22.17
38400;BME280;24180;42.676;23.320;2022-07-19T11:21:10;95334.88;;;40.17;21.83
38400;BME280;24180;42.676;23.320;2022-07-19T11:23:40;95329.91;;;43.60;19.51
38400;BME280;24180;42.676;23.320;2022-07-19T11:26:13;95332.09;;;45.94;17.01
38400;BME280;24180;42.676;23.320;2022-07-19T11:28:42;95328.91;;;46.24;17.35
38400;BME280;24180;42.676;23.320;2022-07-19T11:31:19;95313.53;;;45.41;17.16
38400;BME280;24180;42.676;23.320;2022-07-19T11:33:46;95324.91;;;43.74;17.86
38400;BME280;24180;42.676;23.320;2022-07-19T11:36:13;95329.69;;;42.08;19.20
38400;BME280;24180;42.676;23.320;2022-07-19T11:38:48;95331.16;;;39.12;21.33
38400;BME280;24180;42.676;23.320;2022-07-19T11:41:24;95316.59;;;38.27;21.92
38400;BME280;24180;42.676;23.320;2022-07-19T11:44:08;95315.84;;;38.85;21.67
38400;BME280;24180;42.676;23.320;2022-07-19T11:50:07;95321.19;;;38.99;21.65
38400;BME280;24180;42.676;23.320;2022-07-19T11:52:59;95316.59;;;43.59;18.64
38400;BME280;24180;42.676;23.320;2022-07-19T11:55:36;95313.59;;;43.07;18.81
38400;BME280;24180;42.676;23.320;2022-07-19T11:58:07;95311.31;;;42.76;19.05
38400;BME280;24180;42.676;23.320;2022-07-19T12:00:34;95299.91;;;45.29;17.30
38400;BME280;24180;42.676;23.320;2022-07-19T12:03:05;95306.25;;;43.19;18.24
38400;BME280;24180;42.676;23.320;2022-07-19T12:05:40;95306.34;;;39.18;20.89
38400;BME280;24180;42.676;23.320;2022-07-19T12:14:31;95303.13;;;40.35;20.94
38400;BME280;24180;42.676;23.320;2022-07-19T12:17:21;95303.78;;;45.28;17.15
38400;BME280;24180;42.676;23.320;2022-07-19T12:20:19;95308.94;;;46.23;16.45
38400;BME280;24180;42.676;23.320;2022-07-19T12:22:44;95293.66;;;46.57;16.29
38400;BME280;24180;42.676;23.320;2022-07-19T12:25:40;95272.78;;;40.50;19.39
38400;BME280;24180;42.676;23.320;2022-07-19T12:28:08;95291.81;;;37.71;21.75
38400;BME280;24180;42.676;23.320;2022-07-19T12:30:34;95272.84;;;35.90;23.43
38400;BME280;24180;42.676;23.320;2022-07-19T12:33:11;95272.56;;;34.53;24.96
38400;BME280;24180;42.676;23.320;2022-07-19T12:35:46;95291.16;;;33.01;26.54
38400;BME280;24180;42.676;23.320;2022-07-19T12:38:35;95295.19;;;33.18;26.68
38400;BME280;24180;42.676;23.320;2022-07-19T12:41:19;95269.75;;;37.23;22.82
38400;BME280;24180;42.676;23.320;2022-07-19T12:43:46;95255.50;;;41.06;19.36
38400;BME280;24180;42.676;23.320;2022-07-19T12:46:11;95254.56;;;43.11;17.58
38400;BME280;24180;42.676;23.320;2022-07-19T12:48:38;95253.66;;;40.63;19.57
38400;BME280;24180;42.676;23.320;2022-07-19T12:51:05;95277.63;;;37.33;22.47
38400;BME280;24180;42.676;23.320;2022-07-19T12:53:53;95258.75;;;34.98;24.50
38400;BME280;24180;42.676;23.320;2022-07-19T12:56:20;95249.16;;;33.65;26.04
38400;BME280;24180;42.676;23.320;2022-07-19T12:58:46;95249.84;;;32.91;26.60
38400;BME280;24180;42.676;23.320;2022-07-19T13:08:25;95259.34;;;45.93;16.33
38400;BME280;24180;42.676;23.320;2022-07-19T13:10:56;95264.00;;;47.43;15.29
38400;BME280;24180;42.676;23.320;2022-07-19T13:13:22;95256.16;;;47.64;14.98
38400;BME280;24180;42.676;23.320;2022-07-19T13:15:50;95249.91;;;49.06;14.62
38400;BME280;24180;42.676;23.320;2022-07-19T13:18:17;95253.22;;;50.17;13.93
38400;BME280;24180;42.676;23.320;2022-07-19T13:21:05;95261.31;;;50.54;13.37
38400;BME280;24180;42.676;23.320;2022-07-19T13:23:53;95259.13;;;46.52;15.36
38400;BME280;24180;42.676;23.320;2022-07-19T13:26:28;95258.88;;;43.12;17.32
38400;BME280;24180;42.676;23.320;2022-07-19T13:28:54;95251.25;;;40.28;19.21
38400;BME280;24180;42.676;23.320;2022-07-19T13:31:21;95231.72;;;39.91;19.67
38400;BME280;24180;42.676;23.320;2022-07-19T13:33:47;95258.22;;;43.27;17.51
38400;BME280;24180;42.676;23.320;2022-07-19T13:36:14;95225.59;;;43.18;17.37
38400;BME280;24180;42.676;23.320;2022-07-19T13:38:41;95219.25;;;43.38;17.83
38400;BME280;24180;42.676;23.320;2022-07-19T13:41:38;95246.47;;;45.62;15.73
38400;BME280;24180;42.676;23.320;2022-07-19T13:44:28;95249.34;;;46.01;15.91
38400;BME280;24180;42.676;23.320;2022-07-19T13:46:53;95236.25;;;46.64;15.21
38400;BME280;24180;42.676;23.320;2022-07-19T13:49:29;95243.22;;;47.65;14.33
38400;BME280;24180;42.676;23.320;2022-07-19T13:52:00;95211.06;;;48.77;13.78
38400;BME280;24180;42.676;23.320;2022-07-19T13:54:32;95215.63;;;49.88;13.41
38400;BME280;24180;42.676;23.320;2022-07-19T13:57:00;95231.31;;;47.12;14.68
38400;BME280;24180;42.676;23.320;2022-07-19T13:59:27;95226.00;;;45.56;15.03
38400;BME280;24180;42.676;23.320;2022-07-19T14:05:17;95212.16;;;42.89;16.87